createdAt,value
2022-08-01T00:01:34.382Z,-82
2022-08-01T00:04:03.109Z,-82
2022-08-01T00:06:31.837Z,-81
2022-08-01T00:09:03.563Z,-80
2022-08-01T00:11:32.149Z,-81
2022-08-01T00:14:00.536Z,-82
2022-08-01T00:16:29.488Z,-82
2022-08-01T00:18:58.283Z,-81
2022-08-01T00:21:26.721Z,-82
2022-08-01T00:23:55.412Z,-81
2022-08-01T00:26:28.536Z,-81
2022-08-01T00:28:56.974Z,-81
2022-08-01T00:31:25.451Z,-80
2022-08-01T00:33:53.929Z,-81
2022-08-01T00:36:22.356Z,-80
2022-08-01T00:38:50.790Z,-81
2022-08-01T00:41:19.220Z,-81
2022-08-01T00:43:49.137Z,-80
2022-08-01T00:46:17.602Z,-81
2022-08-01T00:48:54.504Z,-81
2022-08-01T00:51:30.435Z,-81
2022-08-01T00:53:59.112Z,-80
2022-08-01T00:56:29.854Z,-80
2022-08-01T00:59:00.177Z,-80
2022-08-01T01:01:39.459Z,-80
2022-08-01T01:04:08.821Z,-81
2022-08-01T01:06:58.828Z,-80
2022-08-01T01:09:40.435Z,-80
2022-08-01T01:12:24.343Z,-80
2022-08-01T01:15:06.701Z,-81
2022-08-01T01:17:51.469Z,-81
2022-08-01T01:20:25.310Z,-80
2022-08-01T01:23:12.232Z,-80
2022-08-01T01:26:04.987Z,-81
2022-08-01T01:28:43.545Z,-81
2022-08-01T01:31:16.695Z,-81
2022-08-01T01:33:47.620Z,-81
2022-08-01T01:36:21.068Z,-81
2022-08-01T01:38:50.869Z,-82
2022-08-01T01:41:20.870Z,-80
2022-08-01T01:43:50.608Z,-80
2022-08-01T01:46:28.039Z,-80
2022-08-01T01:48:58.858Z,-81
2022-08-01T01:51:30.496Z,-82
2022-08-01T01:54:01.576Z,-82
2022-08-01T01:56:32.512Z,-82
2022-08-01T01:59:06.214Z,-81
2022-08-01T02:01:58.830Z,-81
2022-08-01T02:04:29.409Z,-81
2022-08-01T02:07:00.011Z,-81
2022-08-01T02:09:30.666Z,-81
2022-08-01T02:12:08.875Z,-81
2022-08-01T02:14:40.998Z,-81
2022-08-01T02:17:14.668Z,-81
2022-08-01T02:19:43.728Z,-81
2022-08-01T02:22:18.772Z,-81
2022-08-01T02:24:54.665Z,-81
2022-08-01T02:27:30.788Z,-81
2022-08-01T02:30:05.719Z,-81
2022-08-01T02:32:44.164Z,-81
2022-08-01T02:35:19.530Z,-81
2022-08-01T02:37:50.672Z,-81
2022-08-01T02:40:20.349Z,-81
2022-08-01T02:42:54.640Z,-81
2022-08-01T02:45:27.936Z,-82
2022-08-01T02:48:06.228Z,-82
2022-08-01T02:50:36.898Z,-81
2022-08-01T02:53:11.179Z,-81
2022-08-01T02:55:42.768Z,-81
2022-08-01T02:58:14.596Z,-81
2022-08-01T03:00:47.627Z,-81
2022-08-01T03:03:20.428Z,-81
2022-08-01T03:05:50.743Z,-82
2022-08-01T03:08:22.036Z,-79
2022-08-01T03:10:53.523Z,-80
2022-08-01T03:13:24.278Z,-80
2022-08-01T03:15:56.035Z,-80
2022-08-01T03:18:29.299Z,-81
2022-08-01T03:20:59.954Z,-81
2022-08-01T03:23:38.055Z,-81
2022-08-01T03:26:08.277Z,-81
2022-08-01T03:28:40.715Z,-81
2022-08-01T03:31:09.243Z,-81
2022-08-01T03:33:39.077Z,-82
2022-08-01T03:36:12.628Z,-80
2022-08-01T03:38:43.252Z,-80
2022-08-01T03:41:17.688Z,-80
2022-08-01T03:43:54.313Z,-80
2022-08-01T03:46:31.978Z,-80
2022-08-01T03:49:19.656Z,-80
2022-08-01T03:51:51.525Z,-80
2022-08-01T03:54:26.811Z,-80
2022-08-01T03:56:56.871Z,-80
2022-08-01T03:59:26.670Z,-80
2022-08-01T04:01:56.523Z,-80
2022-08-01T04:04:27.247Z,-80
2022-08-01T04:06:55.973Z,-80
2022-08-01T04:09:24.648Z,-80
2022-08-01T04:11:55.880Z,-81
2022-08-01T04:14:24.903Z,-81
2022-08-01T04:16:53.357Z,-80
2022-08-01T04:19:21.789Z,-80
2022-08-01T04:21:52.714Z,-81
2022-08-01T04:24:24.837Z,-81
2022-08-01T04:26:54.817Z,-81
2022-08-01T04:29:26.701Z,-80
2022-08-01T04:31:59.090Z,-80
2022-08-01T04:34:32.677Z,-81
2022-08-01T04:37:04.123Z,-80
2022-08-01T04:39:50.717Z,-81
2022-08-01T04:42:25.658Z,-79
2022-08-01T04:45:02.933Z,-80
2022-08-01T04:47:33.025Z,-81
2022-08-01T04:50:01.814Z,-80
2022-08-01T04:52:37.202Z,-81
2022-08-01T04:55:08.142Z,-80
2022-08-01T04:57:39.541Z,-80
2022-08-01T05:00:09.769Z,-81
2022-08-01T05:02:38.967Z,-80
2022-08-01T05:05:08.609Z,-81
2022-08-01T05:07:44.247Z,-82
2022-08-01T05:10:14.205Z,-81
2022-08-01T05:12:42.625Z,-81
2022-08-01T05:15:15.527Z,-81
2022-08-01T05:17:44.922Z,-81
2022-08-01T05:20:14.321Z,-80
2022-08-01T05:22:44.480Z,-81
2022-08-01T05:25:13.541Z,-79
2022-08-01T05:27:49.206Z,-80
2022-08-01T05:30:19.555Z,-80
2022-08-01T05:32:48.038Z,-80
2022-08-01T05:35:16.484Z,-80
2022-08-01T05:37:46.321Z,-80
2022-08-01T05:40:14.828Z,-80
2022-08-01T05:42:43.233Z,-80
2022-08-01T05:45:12.696Z,-80
2022-08-01T05:47:43.000Z,-80
2022-08-01T05:50:11.931Z,-80
2022-08-01T05:52:40.361Z,-80
2022-08-01T05:55:11.528Z,-81
2022-08-01T05:57:40.559Z,-80
2022-08-01T06:00:12.541Z,-80
2022-08-01T06:02:44.480Z,-79
2022-08-01T06:05:13.768Z,-80
2022-08-01T06:07:43.204Z,-80
2022-08-01T06:10:13.323Z,-81
2022-08-01T06:12:41.763Z,-81
2022-08-01T06:15:11.213Z,-80
2022-08-01T06:17:40.117Z,-82
2022-08-01T06:20:10.214Z,-79
2022-08-01T06:22:38.647Z,-80
2022-08-01T06:25:10.144Z,-80
2022-08-01T06:27:40.061Z,-80
2022-08-01T06:30:10.179Z,-80
2022-08-01T06:32:38.966Z,-80
2022-08-01T06:35:08.528Z,-80
2022-08-01T06:37:36.968Z,-80
2022-08-01T06:40:06.277Z,-80
2022-08-01T06:42:36.582Z,-80
2022-08-01T06:45:08.548Z,-80
2022-08-01T06:47:37.760Z,-80
2022-08-01T06:50:07.589Z,-80
2022-08-01T06:52:39.478Z,-80
2022-08-01T06:55:09.501Z,-80
2022-08-01T06:57:38.103Z,-80
2022-08-01T07:00:12.184Z,-80
2022-08-01T07:02:43.477Z,-80
2022-08-01T07:05:12.098Z,-80
2022-08-01T07:07:40.844Z,-80
2022-08-01T07:10:10.997Z,-79
2022-08-01T07:12:41.520Z,-80
2022-08-01T07:15:13.268Z,-79
2022-08-01T07:17:42.441Z,-80
2022-08-01T07:20:16.578Z,-79
2022-08-01T07:22:48.295Z,-80
2022-08-01T07:25:17.534Z,-80
2022-08-01T07:27:47.129Z,-79
2022-08-01T07:30:17.266Z,-80
2022-08-01T07:32:45.722Z,-79
2022-08-01T07:35:14.179Z,-79
2022-08-01T07:37:48.979Z,-79
2022-08-01T07:40:19.650Z,-79
2022-08-01T07:42:48.919Z,-79
2022-08-01T07:45:18.894Z,-79
2022-08-01T07:47:47.808Z,-79
2022-08-01T07:50:16.264Z,-79
2022-08-01T07:52:45.259Z,-79
2022-08-01T07:55:16.654Z,-79
2022-08-01T07:57:45.638Z,-79
2022-08-01T08:00:15.426Z,-80
2022-08-01T08:02:45.765Z,-79
2022-08-01T08:05:14.436Z,-79
2022-08-01T08:07:42.877Z,-79
2022-08-01T08:10:11.868Z,-79
2022-08-01T08:12:40.808Z,-79
2022-08-01T08:15:10.887Z,-79
2022-08-01T08:17:40.299Z,-79
2022-08-01T08:20:12.545Z,-78
2022-08-01T08:22:42.269Z,-79
2022-08-01T08:25:12.576Z,-79
2022-08-01T08:27:41.355Z,-79
2022-08-01T08:30:12.165Z,-79
2022-08-01T08:32:41.993Z,-80
2022-08-01T08:35:15.191Z,-80
2022-08-01T08:37:47.757Z,-80
2022-08-01T08:40:32.657Z,-81
2022-08-01T08:43:04.175Z,-80
2022-08-01T08:45:58.980Z,-80
2022-08-01T08:48:26.043Z,-79
2022-08-01T08:51:00.163Z,-80
2022-08-01T08:53:34.459Z,-80
2022-08-01T08:56:05.632Z,-80
2022-08-01T08:58:38.650Z,-80
2022-08-01T09:01:11.820Z,-80
2022-08-01T09:03:40.963Z,-81
2022-08-01T09:06:11.246Z,-80
2022-08-01T09:08:39.827Z,-80
2022-08-01T09:11:08.421Z,-80
2022-08-01T09:13:36.944Z,-80
2022-08-01T09:16:19.408Z,-80
2022-08-01T09:18:53.825Z,-80
2022-08-01T09:21:26.293Z,-80
2022-08-01T09:23:59.819Z,-80
2022-08-01T09:26:34.267Z,-80
2022-08-01T09:29:07.416Z,-80
2022-08-01T09:31:47.215Z,-80
2022-08-01T09:34:19.885Z,-80
2022-08-01T09:36:55.330Z,-80
2022-08-01T09:39:27.283Z,-80
2022-08-01T09:41:59.726Z,-80
2022-08-01T09:44:44.735Z,-79
2022-08-01T09:47:25.468Z,-80
2022-08-01T09:49:59.435Z,-80
2022-08-01T09:52:30.024Z,-80
2022-08-01T09:55:00.927Z,-80
2022-08-01T09:57:31.367Z,-78
2022-08-01T10:00:03.070Z,-81
2022-08-01T10:02:35.639Z,-78
2022-08-01T10:05:08.296Z,-79
2022-08-01T10:07:59.130Z,-79
2022-08-01T10:10:28.902Z,-79
2022-08-01T10:13:00.574Z,-78
2022-08-01T10:15:37.511Z,-79
2022-08-01T10:18:16.432Z,-79
2022-08-01T10:20:56.609Z,-78
2022-08-01T10:23:40.758Z,-78
2022-08-01T10:26:12.088Z,-78
2022-08-01T10:28:41.292Z,-79
2022-08-01T10:31:15.125Z,-80
2022-08-01T10:33:50.509Z,-80
2022-08-01T10:36:25.403Z,-80
2022-08-01T10:38:57.540Z,-81
2022-08-01T10:41:27.888Z,-78
2022-08-01T10:43:59.373Z,-79
2022-08-01T10:46:28.679Z,-79
2022-08-01T10:49:08.231Z,-82
2022-08-01T10:51:52.407Z,-82
2022-08-01T10:54:27.869Z,-83
2022-08-01T10:57:02.441Z,-83
2022-08-01T10:59:58.930Z,-83
2022-08-01T11:02:34.662Z,-81
2022-08-01T11:05:14.327Z,-80
2022-08-01T11:07:51.796Z,-81
2022-08-01T11:10:32.311Z,-81
2022-08-01T11:13:04.522Z,-78
2022-08-01T11:15:33.019Z,-80
2022-08-01T11:18:05.001Z,-78
2022-08-01T11:20:41.806Z,-80
2022-08-01T11:23:21.784Z,-79
2022-08-01T11:26:17.387Z,-78
2022-08-01T11:29:20.042Z,-79
2022-08-01T11:31:50.833Z,-78
2022-08-01T11:34:19.631Z,-77
2022-08-01T11:36:58.789Z,-76
2022-08-01T11:39:28.297Z,-77
2022-08-01T11:42:20.934Z,-77
2022-08-01T11:44:53.383Z,-77
2022-08-01T11:47:47.034Z,-77
2022-08-01T11:50:39.193Z,-77
2022-08-01T11:53:11.350Z,-77
2022-08-01T11:55:51.553Z,-77
2022-08-01T11:58:29.369Z,-77
2022-08-01T12:01:01.102Z,-78
2022-08-01T12:03:33.423Z,-77
2022-08-01T12:06:02.954Z,-78
2022-08-01T12:08:35.858Z,-78
2022-08-01T12:11:07.287Z,-78
2022-08-01T12:13:44.451Z,-78
2022-08-01T12:16:13.648Z,-80
2022-08-01T12:18:43.533Z,-80
2022-08-01T12:21:12.079Z,-80
2022-08-01T12:23:40.618Z,-80
2022-08-01T12:26:25.785Z,-80
2022-08-01T12:28:59.181Z,-80
2022-08-01T12:31:34.963Z,-79
2022-08-01T12:34:29.144Z,-79
2022-08-01T12:36:59.435Z,-79
2022-08-01T12:39:34.490Z,-79
2022-08-01T12:42:03.681Z,-79
2022-08-01T12:44:34.391Z,-79
2022-08-01T12:47:04.988Z,-79
2022-08-01T12:49:37.491Z,-79
2022-08-01T12:52:12.842Z,-79
2022-08-01T12:55:06.386Z,-79
2022-08-01T12:57:40.534Z,-79
2022-08-01T13:00:21.170Z,-79
2022-08-01T13:02:52.166Z,-79
2022-08-01T13:05:20.599Z,-79
2022-08-01T13:07:52.466Z,-79
2022-08-01T13:10:29.574Z,-79
2022-08-01T13:13:00.823Z,-79
2022-08-01T13:15:33.777Z,-80
2022-08-01T13:18:23.860Z,-80
2022-08-01T13:21:16.356Z,-81
2022-08-01T13:24:04.288Z,-80
2022-08-01T13:26:50.705Z,-80
2022-08-01T13:29:21.494Z,-81
2022-08-01T13:31:52.107Z,-80
2022-08-01T13:34:31.703Z,-80
2022-08-01T13:37:00.276Z,-79
2022-08-01T13:39:45.480Z,-81
2022-08-01T13:42:19.241Z,-80
2022-08-01T13:44:48.113Z,-80
2022-08-01T13:47:18.033Z,-80
2022-08-01T13:49:46.583Z,-80
2022-08-01T13:52:15.092Z,-79
2022-08-01T13:54:43.536Z,-80
2022-08-01T13:57:12.351Z,-80
2022-08-01T13:59:40.839Z,-80
2022-08-01T14:02:09.744Z,-80
2022-08-01T14:04:39.631Z,-80
2022-08-01T14:07:11.802Z,-80
2022-08-01T14:09:44.935Z,-80
2022-08-01T14:12:26.165Z,-80
2022-08-01T14:14:54.597Z,-80
2022-08-01T14:17:23.027Z,-80
2022-08-01T14:19:52.892Z,-80
2022-08-01T14:22:21.312Z,-79
2022-08-01T14:24:50.128Z,-79
2022-08-01T14:27:18.539Z,-79
2022-08-01T14:30:03.038Z,-80
2022-08-01T14:32:34.263Z,-80
2022-08-01T14:35:05.719Z,-80
2022-08-01T14:37:38.096Z,-80
2022-08-01T14:40:11.549Z,-80
2022-08-01T14:42:40.708Z,-80
2022-08-01T14:45:10.962Z,-80
2022-08-01T14:47:41.498Z,-80
2022-08-01T14:50:14.484Z,-79
2022-08-01T14:52:44.586Z,-79
2022-08-01T14:55:14.873Z,-80
2022-08-01T14:57:43.324Z,-80
2022-08-01T15:00:14.290Z,-80
2022-08-01T15:02:43.438Z,-79
2022-08-01T15:05:13.773Z,-80
2022-08-01T15:07:52.704Z,-80
2022-08-01T15:10:22.627Z,-80
2022-08-01T15:12:51.185Z,-80
2022-08-01T15:15:20.398Z,-80
2022-08-01T15:17:49.039Z,-80
2022-08-01T15:20:19.109Z,-80
2022-08-01T15:22:48.744Z,-80
2022-08-01T15:25:17.528Z,-80
2022-08-01T15:27:46.132Z,-80
2022-08-01T15:30:14.931Z,-79
2022-08-01T15:32:44.566Z,-80
2022-08-01T15:35:14.840Z,-80
2022-08-01T15:37:44.625Z,-80
2022-08-01T15:40:14.001Z,-80
2022-08-01T15:42:42.523Z,-80
2022-08-01T15:45:37.331Z,-79
2022-08-01T15:48:02.211Z,-80
2022-08-01T15:50:30.603Z,-80
2022-08-01T15:53:00.402Z,-80
2022-08-01T15:55:28.814Z,-80
2022-08-01T15:57:57.326Z,-79
2022-08-01T16:00:25.872Z,-79
2022-08-01T16:03:02.218Z,-80
2022-08-01T16:05:30.646Z,-81
2022-08-01T16:08:01.639Z,-79
2022-08-01T16:10:31.297Z,-79
2022-08-01T16:13:06.840Z,-81
2022-08-01T16:15:37.661Z,-80
2022-08-01T16:18:07.453Z,-81
2022-08-01T16:20:40.171Z,-80
2022-08-01T16:23:13.202Z,-80
2022-08-01T16:25:41.837Z,-80
2022-08-01T16:28:10.831Z,-80
2022-08-01T16:30:50.892Z,-80
2022-08-01T16:33:49.465Z,-80
2022-08-01T16:36:17.747Z,-80
2022-08-01T16:38:47.682Z,-80
2022-08-01T16:41:20.353Z,-80
2022-08-01T16:43:53.021Z,-80
2022-08-01T16:46:23.851Z,-80
2022-08-01T16:48:52.499Z,-80
2022-08-01T16:51:20.980Z,-80
2022-08-01T16:53:50.855Z,-80
2022-08-01T16:56:20.228Z,-80
2022-08-01T16:58:48.809Z,-80
2022-08-01T17:01:59.536Z,-80
2022-08-01T17:04:07.215Z,-80
2022-08-01T17:06:36.032Z,-80
2022-08-01T17:09:06.131Z,-80
2022-08-01T17:11:35.415Z,-80
2022-08-01T17:14:03.968Z,-80
2022-08-01T17:16:32.457Z,-80
2022-08-01T17:19:00.917Z,-82
2022-08-01T17:21:29.460Z,-82
2022-08-01T17:23:57.941Z,-84
2022-08-01T17:26:27.809Z,-80
2022-08-01T17:28:56.168Z,-80
2022-08-01T17:31:24.622Z,-81
2022-08-01T17:33:55.155Z,-81
2022-08-01T17:36:24.873Z,-81
2022-08-01T17:38:53.356Z,-82
2022-08-01T17:41:21.790Z,-81
2022-08-01T17:43:51.641Z,-82
2022-08-01T17:46:20.163Z,-81
2022-08-01T17:48:48.736Z,-81
2022-08-01T17:51:22.477Z,-81
2022-08-01T17:53:55.791Z,-80
2022-08-01T17:56:26.938Z,-81
2022-08-01T17:58:57.258Z,-80
2022-08-01T18:01:27.415Z,-81
2022-08-01T18:03:58.494Z,-82
2022-08-01T18:06:28.572Z,-81
2022-08-01T18:08:59.629Z,-81
2022-08-01T18:11:37.411Z,-82
2022-08-01T18:14:07.804Z,-82
2022-08-01T18:16:36.279Z,-81
2022-08-01T18:19:06.744Z,-80
2022-08-01T18:21:37.587Z,-81
2022-08-01T18:24:09.970Z,-80
2022-08-01T18:26:38.379Z,-81
2022-08-01T18:29:08.222Z,-81
2022-08-01T18:31:36.935Z,-81
2022-08-01T18:34:05.416Z,-81
2022-08-01T18:36:34.594Z,-81
2022-08-01T18:39:08.553Z,-81
2022-08-01T18:41:40.505Z,-82
2022-08-01T18:44:10.510Z,-81
2022-08-01T18:46:40.825Z,-82
2022-08-01T18:49:11.638Z,-82
2022-08-01T18:51:44.819Z,-82
2022-08-01T18:54:14.674Z,-81
2022-08-01T18:56:44.191Z,-82
2022-08-01T18:59:14.668Z,-81
2022-08-01T19:01:43.334Z,-82
2022-08-01T19:04:13.334Z,-81
2022-08-01T19:06:42.187Z,-82
2022-08-01T19:09:10.718Z,-81
2022-08-01T19:11:39.359Z,-81
2022-08-01T19:14:08.016Z,-81
2022-08-01T19:16:38.065Z,-81
2022-08-01T19:19:09.543Z,-82
2022-08-01T19:21:42.935Z,-82
2022-08-01T19:24:23.417Z,-81
2022-08-01T19:26:54.976Z,-81
2022-08-01T19:29:35.160Z,-81
2022-08-01T19:32:10.289Z,-81
2022-08-01T19:34:49.914Z,-80
2022-08-01T19:37:18.930Z,-82
2022-08-01T19:39:47.863Z,-81
2022-08-01T19:42:16.868Z,-80
2022-08-01T19:44:49.222Z,-81
2022-08-01T19:47:19.974Z,-81
2022-08-01T19:49:48.631Z,-81
2022-08-01T19:52:21.237Z,-81
2022-08-01T19:54:51.726Z,-81
2022-08-01T19:57:23.121Z,-81
2022-08-01T19:59:54.836Z,-81
2022-08-01T20:02:26.671Z,-81
2022-08-01T20:04:55.170Z,-82
2022-08-01T20:07:23.767Z,-82
2022-08-01T20:09:54.363Z,-81
2022-08-01T20:12:23.727Z,-81
2022-08-01T20:14:53.815Z,-81
2022-08-01T20:17:23.999Z,-81
2022-08-01T20:19:53.022Z,-81
2022-08-01T20:22:26.833Z,-81
2022-08-01T20:24:59.646Z,-81
2022-08-01T20:27:30.802Z,-81
2022-08-01T20:30:01.904Z,-81
2022-08-01T20:32:35.029Z,-81
2022-08-01T20:35:06.520Z,-81
2022-08-01T20:38:06.380Z,-81
2022-08-01T20:40:30.177Z,-80
2022-08-01T20:42:59.974Z,-80
2022-08-01T20:45:28.789Z,-80
2022-08-01T20:47:59.653Z,-81
2022-08-01T20:50:53.942Z,-81
2022-08-01T20:53:23.922Z,-81
2022-08-01T20:56:05.517Z,-81
2022-08-01T20:58:59.201Z,-80
2022-08-01T21:01:31.267Z,-81
2022-08-01T21:04:21.840Z,-80
2022-08-01T21:06:57.277Z,-81
2022-08-01T21:09:28.551Z,-81
2022-08-01T21:12:18.558Z,-80
2022-08-01T21:14:52.981Z,-80
2022-08-01T21:17:39.643Z,-80
2022-08-01T21:20:14.501Z,-82
2022-08-01T21:22:58.896Z,-81
2022-08-01T21:25:34.293Z,-80
2022-08-01T21:28:04.518Z,-80
2022-08-01T21:30:36.663Z,-81
2022-08-01T21:33:13.611Z,-83
2022-08-01T21:35:46.699Z,-82
2022-08-01T21:38:20.864Z,-81
2022-08-01T21:40:51.304Z,-82
2022-08-01T21:43:20.616Z,-82
2022-08-01T21:45:57.604Z,-82
2022-08-01T21:48:30.764Z,-82
2022-08-01T21:51:07.439Z,-82
2022-08-01T21:53:51.487Z,-83
2022-08-01T21:56:36.028Z,-82
2022-08-01T21:59:19.682Z,-83
2022-08-01T22:01:59.819Z,-83
2022-08-01T22:04:42.137Z,-83
2022-08-01T22:07:17.553Z,-82
2022-08-01T22:09:51.414Z,-83
2022-08-01T22:12:21.667Z,-83
2022-08-01T22:14:56.610Z,-83
2022-08-01T22:17:27.137Z,-83
2022-08-01T22:19:56.547Z,-83
2022-08-01T22:22:45.076Z,-83
2022-08-01T22:25:18.209Z,-83
2022-08-01T22:28:08.096Z,-82
2022-08-01T22:30:36.476Z,-83
2022-08-01T22:33:15.219Z,-83
2022-08-01T22:35:47.755Z,-84
2022-08-01T22:38:20.062Z,-84
2022-08-01T22:40:53.444Z,-84
2022-08-01T22:43:30.619Z,-83
2022-08-01T22:46:23.445Z,-83
2022-08-01T22:48:57.740Z,-82
2022-08-01T22:51:54.906Z,-83
2022-08-01T22:54:37.504Z,-84
2022-08-01T22:57:12.668Z,-82
2022-08-01T22:59:51.609Z,-82
2022-08-01T23:02:23.674Z,-82
2022-08-01T23:05:03.826Z,-82
2022-08-01T23:07:44.803Z,-84
2022-08-01T23:10:15.260Z,-83
2022-08-01T23:12:45.927Z,-82
2022-08-01T23:15:14.822Z,-82
2022-08-01T23:17:45.964Z,-84
2022-08-01T23:20:14.730Z,-83
2022-08-01T23:22:44.601Z,-83
2022-08-01T23:25:18.676Z,-83
2022-08-01T23:27:51.935Z,-83
2022-08-01T23:30:36.589Z,-83
2022-08-01T23:33:06.664Z,-83
2022-08-01T23:35:39.215Z,-84
2022-08-01T23:38:10.224Z,-82
2022-08-01T23:40:40.534Z,-82
2022-08-01T23:43:16.050Z,-83
2022-08-01T23:46:03.383Z,-82
2022-08-01T23:48:35.446Z,-81
2022-08-01T23:51:04.603Z,-83
2022-08-01T23:53:35.976Z,-82
2022-08-01T23:56:09.203Z,-83
2022-08-01T23:58:37.731Z,-84
